Time;durP1;ratioP1;P1;durP2;ratioP2;P2;SDS_P1;SDS_P2;PMS_P1;PMS_P2;Temp;Humidity;BMP_temperature;BMP_pressure;BME280_temperature;BME280_humidity;BME280_pressure;Samples;Min_cycle;Max_cycle;Signal;HPM_P1;HPM_P2
2022/08/30 00:02:53;;;;;;;10.70;8.23;;;16.40;99.90;;;;;;4909130;29;20813;-85
2022/08/30 00:05:22;;;;;;;9.53;8.03;;;16.50;99.90;;;;;;4917116;29;20217;-86
2022/08/30 00:07:52;;;;;;;10.37;8.50;;;16.50;99.90;;;;;;4923257;29;20206;-86
2022/08/30 00:10:22;;;;;;;11.87;8.43;;;16.40;99.90;;;;;;4909949;29;20210;-86
2022/08/30 00:12:51;;;;;;;10.37;8.70;;;16.40;99.90;;;;;;4915851;29;20230;-86
2022/08/30 00:15:20;;;;;;;10.57;9.17;;;16.50;99.90;;;;;;4913185;29;20210;-85
2022/08/30 00:17:49;;;;;;;10.23;9.10;;;16.40;99.90;;;;;;4924119;29;20218;-85
2022/08/30 00:20:21;;;;;;;12.87;9.73;;;16.40;99.90;;;;;;4915585;29;20206;-87
2022/08/30 00:22:50;;;;;;;10.13;8.87;;;16.40;99.90;;;;;;4913635;29;20219;-86
2022/08/30 00:25:19;;;;;;;12.80;9.37;;;16.40;99.90;;;;;;4915976;29;20608;-84
2022/08/30 00:27:50;;;;;;;11.27;9.53;;;16.40;99.90;;;;;;4916092;29;20555;-87
2022/08/30 00:30:19;;;;;;;11.57;8.83;;;16.40;99.90;;;;;;4916138;29;20516;-84
2022/08/30 00:32:49;;;;;;;12.07;9.63;;;16.30;99.90;;;;;;4921461;29;20222;-85
2022/08/30 00:35:19;;;;;;;11.13;9.33;;;16.30;99.90;;;;;;4916117;29;20202;-84
2022/08/30 00:37:48;;;;;;;12.73;9.30;;;16.30;99.90;;;;;;4930904;28;20202;-84
2022/08/30 00:40:19;;;;;;;10.27;9.27;;;16.30;99.90;;;;;;4934194;28;20198;-84
2022/08/30 00:42:58;;;;;;;11.53;9.63;;;16.20;99.90;;;;;;4930849;28;20285;-85
2022/08/30 00:45:34;;;;;;;11.53;8.90;;;16.20;99.90;;;;;;4934028;28;20281;-84
2022/08/30 00:48:05;;;;;;;12.57;9.27;;;16.20;99.90;;;;;;4929504;28;20503;-86
2022/08/30 00:50:40;;;;;;;10.87;9.50;;;16.10;99.90;;;;;;4934172;28;20201;-86
2022/08/30 00:53:14;;;;;;;11.33;9.23;;;16.10;99.90;;;;;;4928588;28;20189;-85
2022/08/30 00:55:44;;;;;;;13.80;9.30;;;16.10;99.90;;;;;;4931867;28;20213;-84
2022/08/30 00:58:20;;;;;;;12.07;8.50;;;16.10;99.90;;;;;;4930376;28;20225;-84
2022/08/30 01:00:52;;;;;;;12.20;9.40;;;16.10;99.90;;;;;;4901108;29;20241;-86
2022/08/30 01:03:21;;;;;;;9.63;8.60;;;16.20;99.90;;;;;;4906340;29;20233;-86
2022/08/30 01:05:51;;;;;;;12.30;9.10;;;16.10;99.90;;;;;;4924289;28;20202;-84
2022/08/30 01:08:21;;;;;;;10.23;9.10;;;16.10;99.90;;;;;;4916655;28;20287;-85
2022/08/30 01:10:51;;;;;;;13.10;9.67;;;16.10;99.90;;;;;;4907945;29;20246;-84
2022/08/30 01:13:22;;;;;;;11.60;9.97;;;16.10;99.90;;;;;;4906429;28;20207;-84
2022/08/30 01:15:52;;;;;;;14.70;9.33;;;16.10;99.90;;;;;;4916579;29;20290;-83
2022/08/30 01:18:24;;;;;;;10.80;9.70;;;16.10;99.90;;;;;;4908532;29;20214;-85
2022/08/30 01:21:02;;;;;;;12.93;9.67;;;16.10;99.90;;;;;;4909336;29;20317;-86
2022/08/30 01:23:34;;;;;;;11.07;9.90;;;16.10;99.90;;;;;;4912584;29;20669;-86
2022/08/30 01:26:06;;;;;;;12.67;9.97;;;16.00;99.90;;;;;;4930551;28;20462;-87
2022/08/30 01:28:36;;;;;;;13.13;10.17;;;16.10;99.90;;;;;;4909692;28;20206;-85
2022/08/30 01:31:05;;;;;;;11.20;9.80;;;16.00;99.90;;;;;;4899617;29;20330;-86
2022/08/30 01:33:36;;;;;;;12.10;10.10;;;16.00;99.90;;;;;;4906236;29;20217;-85
2022/08/30 01:36:11;;;;;;;12.23;10.20;;;16.00;99.90;;;;;;4908994;29;20202;-85
2022/08/30 01:38:46;;;;;;;12.97;10.20;;;16.00;99.90;;;;;;4905241;29;20587;-84
2022/08/30 01:41:20;;;;;;;11.77;9.90;;;16.00;99.90;;;;;;4911214;29;20677;-83
2022/08/30 01:43:51;;;;;;;12.10;10.80;;;16.00;99.90;;;;;;4914966;29;20249;-85
2022/08/30 01:46:22;;;;;;;12.30;10.57;;;16.00;99.90;;;;;;4912996;29;20210;-84
2022/08/30 01:48:52;;;;;;;13.27;10.60;;;16.00;99.90;;;;;;4905449;29;20485;-85
2022/08/30 01:51:22;;;;;;;13.63;11.40;;;16.00;99.90;;;;;;4906101;29;20707;-86
2022/08/30 01:53:53;;;;;;;14.27;10.80;;;15.90;99.90;;;;;;4905884;29;20239;-87
2022/08/30 01:56:21;;;;;;;15.23;10.80;;;16.00;99.90;;;;;;4908422;29;20229;-85
2022/08/30 01:58:51;;;;;;;14.50;11.70;;;16.00;99.90;;;;;;4909553;29;20757;-86
2022/08/30 02:01:23;;;;;;;14.80;11.50;;;15.90;99.90;;;;;;4908346;29;20527;-85
2022/08/30 02:03:54;;;;;;;13.77;11.37;;;15.90;99.90;;;;;;4911965;29;20340;-85
2022/08/30 02:06:26;;;;;;;13.57;12.10;;;15.90;99.90;;;;;;4926525;29;20237;-85
2022/08/30 02:08:57;;;;;;;14.23;11.47;;;15.90;99.90;;;;;;4926625;28;20214;-85
2022/08/30 02:11:26;;;;;;;13.53;11.00;;;15.80;99.90;;;;;;4912545;28;20218;-86
2022/08/30 02:13:54;;;;;;;13.67;11.93;;;15.70;99.90;;;;;;4917124;28;20214;-85
2022/08/30 02:16:25;;;;;;;12.90;11.50;;;15.70;99.90;;;;;;4926790;28;20217;-82
2022/08/30 02:18:55;;;;;;;14.17;11.33;;;15.70;99.90;;;;;;4914725;29;20471;-83
2022/08/30 02:21:26;;;;;;;14.97;12.03;;;15.70;99.90;;;;;;4930369;29;20206;-83
2022/08/30 02:23:56;;;;;;;14.90;11.50;;;15.70;99.90;;;;;;4928760;29;20468;-85
2022/08/30 02:26:26;;;;;;;16.67;11.87;;;15.70;99.90;;;;;;4935024;29;20216;-86
2022/08/30 02:28:54;;;;;;;14.27;12.10;;;15.70;99.90;;;;;;4923843;29;20202;-83
2022/08/30 02:31:27;;;;;;;15.13;11.40;;;15.70;99.90;;;;;;4909791;29;20218;-84
2022/08/30 02:33:55;;;;;;;12.43;11.13;;;15.70;99.90;;;;;;4918393;29;20257;-85
2022/08/30 02:36:24;;;;;;;14.43;11.60;;;15.60;99.90;;;;;;4916914;29;20221;-86
2022/08/30 02:38:53;;;;;;;14.83;11.70;;;15.70;99.90;;;;;;4915337;29;20226;-84
2022/08/30 02:41:23;;;;;;;14.60;12.27;;;15.60;99.90;;;;;;4936489;28;20202;-83
2022/08/30 02:43:57;;;;;;;14.53;12.00;;;15.50;99.90;;;;;;4924406;28;20274;-85
2022/08/30 02:46:26;;;;;;;14.80;12.00;;;15.50;99.90;;;;;;4913642;29;20237;-83
2022/08/30 02:49:00;;;;;;;16.63;12.57;;;15.40;99.90;;;;;;4917510;29;20240;-83
2022/08/30 02:51:50;;;;;;;15.53;12.87;;;15.40;99.90;;;;;;4910359;29;20240;-83
2022/08/30 02:54:19;;;;;;;14.57;12.47;;;15.50;99.90;;;;;;4917799;29;20286;-85
2022/08/30 02:56:50;;;;;;;17.37;12.77;;;15.40;99.90;;;;;;4913470;29;20254;-86
2022/08/30 02:59:19;;;;;;;16.37;12.97;;;15.40;99.90;;;;;;4919337;29;20203;-85
2022/08/30 03:01:48;;;;;;;15.03;12.50;;;15.50;99.90;;;;;;4909031;29;20222;-85
2022/08/30 03:04:17;;;;;;;14.33;12.20;;;15.40;99.90;;;;;;4913523;29;20237;-86
2022/08/30 03:06:54;;;;;;;14.97;12.43;;;15.40;99.90;;;;;;4912311;29;20214;-86
2022/08/30 03:09:23;;;;;;;17.60;14.27;;;15.30;99.90;;;;;;4915082;29;20274;-85
2022/08/30 03:11:53;;;;;;;15.83;13.23;;;15.40;99.90;;;;;;4912460;29;20207;-86
2022/08/30 03:14:23;;;;;;;14.93;13.30;;;15.30;99.90;;;;;;4923790;29;20202;-85
2022/08/30 03:16:52;;;;;;;17.20;14.27;;;15.30;99.90;;;;;;4932141;28;20286;-86
2022/08/30 03:19:21;;;;;;;17.90;13.90;;;15.30;99.90;;;;;;4930183;28;20492;-86
2022/08/30 03:21:50;;;;;;;18.77;13.77;;;15.20;99.90;;;;;;4940333;28;20203;-85
2022/08/30 03:24:19;;;;;;;15.93;13.97;;;15.20;99.90;;;;;;4938445;28;20219;-86
2022/08/30 03:26:47;;;;;;;16.13;13.57;;;15.20;99.90;;;;;;4932232;28;20240;-85
2022/08/30 03:29:17;;;;;;;15.97;13.60;;;15.20;99.90;;;;;;4935045;28;20221;-84
2022/08/30 03:31:47;;;;;;;17.20;14.00;;;15.20;99.90;;;;;;4935706;28;20404;-87
2022/08/30 03:34:22;;;;;;;17.30;14.63;;;15.20;99.90;;;;;;4932780;28;20194;-84
2022/08/30 03:36:51;;;;;;;20.57;14.30;;;15.20;99.90;;;;;;4935695;28;20195;-85
2022/08/30 03:39:21;;;;;;;18.30;13.37;;;15.30;99.90;;;;;;4913934;29;20209;-83
2022/08/30 03:41:50;;;;;;;18.70;13.67;;;15.30;99.90;;;;;;4918461;29;20214;-85
2022/08/30 03:44:21;;;;;;;17.67;14.20;;;15.30;99.90;;;;;;4910285;29;20291;-85
2022/08/30 03:46:49;;;;;;;17.87;13.07;;;15.20;99.90;;;;;;4911529;29;20681;-85
2022/08/30 03:49:20;;;;;;;18.07;13.97;;;15.30;99.90;;;;;;4907182;29;20202;-85
2022/08/30 03:51:49;;;;;;;18.63;14.60;;;15.20;99.90;;;;;;4907938;29;20206;-85
2022/08/30 03:54:17;;;;;;;19.13;14.27;;;15.20;99.90;;;;;;4910546;29;20206;-86
2022/08/30 03:56:46;;;;;;;17.63;14.20;;;15.20;99.90;;;;;;4906011;29;20241;-86
2022/08/30 03:59:15;;;;;;;20.20;15.13;;;15.30;99.90;;;;;;4907041;29;20201;-85
2022/08/30 04:01:46;;;;;;;17.33;14.10;;;15.30;99.90;;;;;;4906647;29;20239;-84
2022/08/30 04:04:15;;;;;;;19.10;15.47;;;15.30;99.90;;;;;;4907744;29;20288;-86
2022/08/30 04:06:49;;;;;;;19.40;15.37;;;15.30;99.90;;;;;;4908884;29;20217;-85
2022/08/30 04:09:18;;;;;;;18.90;14.67;;;15.40;99.90;;;;;;4905605;29;20658;-86
2022/08/30 04:11:47;;;;;;;17.53;14.50;;;15.40;99.90;;;;;;4909787;29;20218;-84
2022/08/30 04:14:15;;;;;;;16.03;14.43;;;15.40;99.90;;;;;;4919979;29;20203;-86
2022/08/30 04:16:46;;;;;;;16.10;13.50;;;15.50;99.90;;;;;;4910684;29;20218;-78
2022/08/30 04:19:14;;;;;;;18.80;13.20;;;15.50;99.90;;;;;;4901468;29;20298;-80
2022/08/30 04:21:43;;;;;;;15.83;13.53;;;15.50;99.90;;;;;;4896110;29;20571;-78
2022/08/30 04:24:12;;;;;;;16.63;13.90;;;15.60;99.90;;;;;;4902918;29;21056;-78
2022/08/30 04:26:40;;;;;;;17.33;13.53;;;15.60;99.90;;;;;;4898205;29;20258;-78
2022/08/30 04:29:15;;;;;;;15.63;13.60;;;15.60;99.90;;;;;;4901417;29;20787;-79
2022/08/30 04:31:45;;;;;;;17.20;13.57;;;15.60;99.90;;;;;;4913275;29;20213;-78
2022/08/30 04:34:14;;;;;;;16.00;13.43;;;15.70;99.90;;;;;;4921424;29;20202;-79
2022/08/30 04:36:43;;;;;;;16.10;13.33;;;15.70;99.90;;;;;;4901081;29;20211;-79
2022/08/30 04:39:15;;;;;;;14.30;11.83;;;15.80;99.90;;;;;;4897609;29;20293;-79
2022/08/30 04:41:44;;;;;;;14.67;11.67;;;15.90;99.90;;;;;;4900988;28;20327;-79
2022/08/30 04:44:13;;;;;;;15.37;12.03;;;16.00;99.90;;;;;;4899864;29;20230;-78
2022/08/30 04:46:48;;;;;;;14.60;11.47;;;16.10;99.90;;;;;;4903773;29;20244;-77
2022/08/30 04:49:16;;;;;;;12.57;10.67;;;16.10;99.90;;;;;;4905454;28;20212;-80
2022/08/30 04:51:45;;;;;;;13.13;11.10;;;16.20;99.90;;;;;;4899991;29;21033;-80
2022/08/30 04:54:13;;;;;;;13.77;10.03;;;16.20;99.90;;;;;;4908661;29;20206;-80
2022/08/30 04:56:42;;;;;;;11.17;9.70;;;16.30;99.90;;;;;;4900060;29;20801;-82
2022/08/30 04:59:10;;;;;;;11.33;9.27;;;16.40;99.90;;;;;;4894787;29;20218;-79
2022/08/30 05:01:39;;;;;;;10.33;9.13;;;16.30;99.90;;;;;;4894506;29;20309;-79
2022/08/30 05:04:14;;;;;;;13.77;9.90;;;16.40;99.90;;;;;;4878261;29;20666;-78
2022/08/30 05:06:44;;;;;;;10.57;9.47;;;16.30;99.90;;;;;;4889200;29;20244;-80
2022/08/30 05:09:12;;;;;;;9.87;8.90;;;16.20;99.90;;;;;;4888160;29;20309;-81
2022/08/30 05:11:42;;;;;;;11.07;9.90;;;16.20;99.90;;;;;;4882977;29;21159;-78
2022/08/30 05:14:11;;;;;;;12.20;9.70;;;16.20;99.90;;;;;;4885611;29;20235;-80
2022/08/30 05:16:40;;;;;;;10.77;9.17;;;16.30;99.90;;;;;;4887421;29;20210;-80
2022/08/30 05:19:08;;;;;;;10.17;8.90;;;16.30;99.90;;;;;;4882669;28;20208;-78
2022/08/30 05:21:40;;;;;;;10.20;9.23;;;16.40;99.90;;;;;;4883261;28;21081;-78
2022/08/30 05:24:08;;;;;;;11.37;8.33;;;16.40;99.90;;;;;;4891689;29;20232;-77
2022/08/30 05:26:38;;;;;;;9.50;8.50;;;16.40;99.90;;;;;;4889633;29;20956;-78
2022/08/30 05:29:07;;;;;;;9.30;8.27;;;16.60;99.90;;;;;;4879639;29;21605;-79
2022/08/30 05:31:36;;;;;;;10.07;8.67;;;16.60;99.90;;;;;;4879010;29;20214;-79
2022/08/30 05:34:05;;;;;;;8.90;7.83;;;16.70;99.90;;;;;;4880157;29;20209;-78
2022/08/30 05:36:36;;;;;;;8.13;7.33;;;16.80;99.90;;;;;;4888698;29;20198;-80
2022/08/30 05:39:08;;;;;;;9.40;7.83;;;16.70;99.90;;;;;;4879335;29;20210;-78
2022/08/30 05:41:37;;;;;;;9.17;7.07;;;16.70;99.90;;;;;;4891221;29;20215;-82
2022/08/30 05:44:08;;;;;;;8.27;7.40;;;16.90;99.90;;;;;;4887609;29;20332;-78
2022/08/30 05:46:38;;;;;;;7.77;7.07;;;17.00;99.90;;;;;;4879836;29;20210;-79
2022/08/30 05:49:08;;;;;;;8.97;6.60;;;17.20;99.90;;;;;;4876277;29;20242;-80
2022/08/30 05:51:37;;;;;;;7.83;6.70;;;17.40;99.90;;;;;;4878197;29;20214;-80
2022/08/30 05:54:13;;;;;;;9.40;6.87;;;17.40;99.90;;;;;;4876917;29;20214;-81
2022/08/30 05:56:44;;;;;;;8.40;7.47;;;17.50;99.90;;;;;;4887128;29;20375;-77
2022/08/30 05:59:14;;;;;;;7.17;6.37;;;17.60;99.70;;;;;;4880109;29;20298;-80
2022/08/30 06:01:44;;;;;;;7.40;5.90;;;17.70;98.10;;;;;;4884853;29;20336;-78
2022/08/30 06:04:14;;;;;;;7.20;6.40;;;17.60;98.20;;;;;;4881168;29;20214;-79
2022/08/30 06:06:44;;;;;;;8.97;6.10;;;17.60;98.90;;;;;;4880335;29;20298;-79
2022/08/30 06:09:15;;;;;;;17.87;8.30;;;17.60;98.80;;;;;;4877554;29;20217;-79
2022/08/30 06:11:45;;;;;;;12.03;6.13;;;17.70;98.50;;;;;;4869699;29;20617;-78
2022/08/30 06:14:14;;;;;;;6.03;5.47;;;17.70;97.50;;;;;;4860693;29;20210;-81
2022/08/30 06:16:44;;;;;;;6.57;5.50;;;17.80;97.30;;;;;;4871728;28;20216;-80
2022/08/30 06:19:15;;;;;;;5.43;4.90;;;17.90;97.30;;;;;;4876580;29;20407;-79
2022/08/30 06:21:47;;;;;;;5.40;4.60;;;18.00;96.80;;;;;;4869657;29;20413;-79
2022/08/30 06:24:17;;;;;;;6.30;4.97;;;18.00;96.40;;;;;;4874933;29;20237;-80
2022/08/30 06:26:49;;;;;;;6.13;4.70;;;18.00;95.90;;;;;;4877701;29;20205;-80
2022/08/30 06:29:20;;;;;;;5.23;4.53;;;17.90;96.00;;;;;;4865989;28;20208;-80
2022/08/30 06:31:49;;;;;;;6.43;4.40;;;18.00;95.80;;;;;;4880997;29;20210;-79
2022/08/30 06:34:18;;;;;;;5.57;4.03;;;18.20;96.20;;;;;;4864764;29;20215;-79
2022/08/30 06:36:46;;;;;;;4.43;4.03;;;18.40;95.60;;;;;;4878662;29;21453;-78
2022/08/30 06:39:16;;;;;;;4.67;4.27;;;18.50;94.50;;;;;;4868034;29;20382;-78
2022/08/30 06:41:45;;;;;;;4.33;3.83;;;18.60;94.20;;;;;;4875706;29;20555;-80
2022/08/30 06:44:13;;;;;;;4.10;3.50;;;18.80;93.90;;;;;;4873680;29;20779;-80
2022/08/30 06:46:42;;;;;;;3.73;3.43;;;18.80;94.10;;;;;;4869687;29;20657;-80
2022/08/30 06:49:10;;;;;;;6.17;3.47;;;18.90;93.60;;;;;;4859925;29;20314;-79
2022/08/30 06:51:39;;;;;;;3.60;3.30;;;19.00;93.00;;;;;;4873554;29;20245;-80
2022/08/30 06:54:10;;;;;;;6.23;3.37;;;18.80;92.60;;;;;;4902230;29;20224;-81
2022/08/30 06:56:41;;;;;;;3.60;3.30;;;18.80;92.90;;;;;;4873662;29;20252;-78
2022/08/30 06:59:26;;;;;;;4.47;3.40;;;18.60;93.20;;;;;;4866525;29;20873;-77
2022/08/30 07:01:56;;;;;;;3.47;3.03;;;18.60;93.40;;;;;;4873971;29;20451;-79
2022/08/30 07:04:24;;;;;;;4.37;3.07;;;18.60;94.10;;;;;;4870315;29;20471;-78
2022/08/30 07:06:53;;;;;;;4.73;3.60;;;18.80;93.80;;;;;;4881580;29;20233;-79
2022/08/30 07:09:22;;;;;;;4.30;3.80;;;19.10;93.20;;;;;;4874321;28;20238;-79
2022/08/30 07:11:53;;;;;;;4.53;3.70;;;19.10;92.70;;;;;;4869051;29;20796;-78
2022/08/30 07:14:22;;;;;;;6.60;3.73;;;19.10;92.90;;;;;;4877411;29;20846;-79
2022/08/30 07:16:50;;;;;;;4.23;3.93;;;19.10;93.10;;;;;;4879331;29;20638;-78
2022/08/30 07:19:19;;;;;;;3.87;3.47;;;19.20;93.10;;;;;;4881577;29;20267;-81
2022/08/30 07:21:49;;;;;;;4.17;3.37;;;19.30;92.50;;;;;;4885262;29;20677;-81
2022/08/30 07:24:19;;;;;;;3.67;3.00;;;19.40;92.60;;;;;;4887107;29;20458;-80
2022/08/30 07:26:50;;;;;;;3.97;3.40;;;19.50;92.30;;;;;;4882563;29;20245;-81
2022/08/30 07:29:21;;;;;;;4.67;3.17;;;19.50;92.10;;;;;;4867522;29;20601;-80
2022/08/30 07:31:49;;;;;;;3.77;3.47;;;19.40;92.20;;;;;;4872745;29;20289;-80
2022/08/30 07:34:19;;;;;;;5.13;3.33;;;19.30;92.20;;;;;;4863896;29;20217;-78
2022/08/30 07:36:50;;;;;;;4.47;3.43;;;19.10;93.00;;;;;;4864084;29;20405;-81
2022/08/30 07:39:19;;;;;;;5.73;2.90;;;19.10;93.60;;;;;;4870984;29;20323;-81
2022/08/30 07:41:49;;;;;;;3.50;3.20;;;19.10;93.40;;;;;;4873866;29;20213;-80
2022/08/30 07:44:18;;;;;;;4.50;3.30;;;19.20;93.60;;;;;;4869948;29;20724;-77
2022/08/30 07:46:51;;;;;;;3.83;3.03;;;19.10;93.10;;;;;;4863129;29;20232;-77
2022/08/30 07:49:20;;;;;;;4.23;3.30;;;19.30;93.40;;;;;;4853073;29;20653;-77
2022/08/30 07:51:48;;;;;;;5.70;2.90;;;19.60;92.80;;;;;;4856601;29;20332;-80
2022/08/30 07:54:17;;;;;;;3.43;2.90;;;19.80;92.50;;;;;;4858988;29;20210;-77
2022/08/30 07:56:45;;;;;;;3.60;3.13;;;19.90;92.00;;;;;;4856110;29;20287;-78
2022/08/30 07:59:14;;;;;;;3.70;2.97;;;20.00;91.40;;;;;;4852800;29;20481;-81
2022/08/30 08:01:42;;;;;;;3.30;3.00;;;20.10;91.20;;;;;;4868916;29;20752;-79
2022/08/30 08:04:12;;;;;;;3.50;3.20;;;20.10;90.90;;;;;;4855585;29;20975;-80
2022/08/30 08:06:41;;;;;;;4.30;3.10;;;19.80;91.10;;;;;;4877499;29;20442;-80
2022/08/30 08:09:09;;;;;;;4.37;3.00;;;19.70;91.30;;;;;;4880810;29;20206;-80
2022/08/30 08:11:39;;;;;;;5.50;3.28;;;19.70;91.60;;;;;;4874233;29;20651;-79
2022/08/30 08:14:08;;;;;;;5.47;3.50;;;19.70;91.70;;;;;;4873998;29;20527;-80
2022/08/30 08:16:37;;;;;;;8.05;3.00;;;19.90;91.60;;;;;;4872289;29;20491;-77
2022/08/30 08:19:07;;;;;;;3.92;2.72;;;20.10;91.30;;;;;;4857619;29;20484;-80
2022/08/30 08:21:38;;;;;;;3.25;2.95;;;20.00;91.00;;;;;;4871626;29;20512;-82
2022/08/30 08:24:07;;;;;;;4.67;2.50;;;19.90;91.10;;;;;;4861655;29;20301;-77
2022/08/30 08:26:37;;;;;;;3.83;2.83;;;19.90;91.20;;;;;;4866318;29;20869;-79
2022/08/30 08:29:12;;;;;;;3.85;2.70;;;20.00;91.20;;;;;;4865005;29;20214;-77
2022/08/30 08:31:41;;;;;;;4.27;2.60;;;20.00;90.90;;;;;;4855549;29;20238;-79
2022/08/30 08:34:10;;;;;;;4.40;2.30;;;20.00;91.30;;;;;;4846537;29;20213;-77
2022/08/30 08:36:40;;;;;;;4.03;2.92;;;20.00;91.10;;;;;;4851862;29;20694;-83
2022/08/30 08:39:09;;;;;;;3.27;2.30;;;20.00;91.40;;;;;;4848964;29;20202;-79
2022/08/30 08:41:52;;;;;;;2.53;2.33;;;20.00;91.40;;;;;;4862315;29;20734;-84
2022/08/30 08:44:32;;;;;;;2.70;2.20;;;20.00;91.00;;;;;;4861703;29;20282;-87
2022/08/30 08:47:11;;;;;;;2.63;2.30;;;20.10;90.80;;;;;;4864599;29;21156;-84
2022/08/30 08:49:44;;;;;;;2.57;2.20;;;20.10;90.70;;;;;;4864664;29;20234;-84
2022/08/30 08:55:10;;;;;;;3.33;2.20;;;20.00;91.00;;;;;;4859977;29;21170;-82
2022/08/30 08:57:39;;;;;;;4.03;2.40;;;20.10;91.00;;;;;;4856165;29;21061;-80
2022/08/30 09:00:10;;;;;;;5.72;2.50;;;20.30;90.60;;;;;;4845879;29;20306;-81
2022/08/30 09:02:42;;;;;;;4.32;2.00;;;20.40;90.60;;;;;;4855835;29;20280;-80
2022/08/30 09:05:16;;;;;;;1.90;1.80;;;20.60;90.40;;;;;;4855112;29;20215;-82
2022/08/30 09:07:52;;;;;;;2.72;2.40;;;20.70;89.90;;;;;;4859164;29;20234;-83
2022/08/30 09:10:22;;;;;;;3.58;2.10;;;20.80;90.00;;;;;;4847330;29;20321;-82
2022/08/30 09:13:10;;;;;;;2.35;1.70;;;20.80;89.40;;;;;;4846626;29;20469;-80
2022/08/30 09:15:46;;;;;;;4.18;2.00;;;20.60;89.50;;;;;;4851074;29;20212;-79
2022/08/30 09:18:41;;;;;;;3.78;2.03;;;20.90;89.80;;;;;;4849030;29;20359;-81
2022/08/30 09:21:15;;;;;;;2.20;1.83;;;21.20;89.20;;;;;;4848274;29;20217;-79
2022/08/30 09:23:59;;;;;;;1.88;1.73;;;21.20;88.80;;;;;;4857422;29;20424;-78
2022/08/30 09:26:30;;;;;;;2.70;1.80;;;21.30;88.30;;;;;;4845884;29;20991;-80
2022/08/30 09:28:59;;;;;;;2.85;1.83;;;21.50;88.30;;;;;;4851364;29;20411;-78
2022/08/30 09:31:30;;;;;;;2.38;1.80;;;21.50;88.10;;;;;;4849248;29;20289;-80
2022/08/30 09:34:02;;;;;;;5.10;1.38;;;21.70;87.90;;;;;;4850316;29;20206;-82
2022/08/30 09:36:35;;;;;;;2.15;1.80;;;21.80;86.40;;;;;;4848375;29;20587;-82
2022/08/30 09:39:07;;;;;;;3.00;1.52;;;21.70;86.40;;;;;;4851693;29;20321;-80
2022/08/30 09:41:41;;;;;;;1.83;1.52;;;21.50;86.70;;;;;;4848747;29;20494;-81
2022/08/30 09:44:14;;;;;;;3.53;1.98;;;21.40;86.90;;;;;;4847898;29;20286;-83
2022/08/30 09:46:49;;;;;;;1.85;1.65;;;21.40;86.20;;;;;;4846261;29;20269;-79
2022/08/30 09:49:34;;;;;;;2.63;1.65;;;21.40;85.70;;;;;;4847552;29;20218;-81
2022/08/30 09:52:32;;;;;;;3.63;1.60;;;21.50;85.90;;;;;;4847306;29;21112;-80
2022/08/30 09:55:18;;;;;;;1.58;1.48;;;21.40;85.70;;;;;;4838603;29;20586;-82
2022/08/30 09:57:57;;;;;;;3.90;1.60;;;21.10;86.00;;;;;;4840253;29;20582;-80
2022/08/30 10:00:30;;;;;;;2.85;1.50;;;21.00;86.50;;;;;;4839803;29;20225;-83
2022/08/30 10:03:16;;;;;;;1.95;1.85;;;20.70;86.70;;;;;;4840036;29;20275;-83
2022/08/30 10:06:10;;;;;;;1.55;1.45;;;20.90;87.30;;;;;;4842225;29;20266;-82
2022/08/30 10:08:51;;;;;;;3.78;1.92;;;21.30;87.30;;;;;;4843514;29;20250;-79
2022/08/30 10:11:28;;;;;;;3.20;1.50;;;21.60;86.90;;;;;;4854092;29;21032;-79
2022/08/30 10:14:35;;;;;;;1.73;1.63;;;21.90;86.60;;;;;;4838239;29;21035;-81
2022/08/30 10:17:12;;;;;;;4.22;1.70;;;22.20;85.80;;;;;;4811008;29;20554;-81
2022/08/30 10:19:52;;;;;;;2.45;1.70;;;22.20;85.90;;;;;;4815830;29;20323;-82
2022/08/30 10:22:26;;;;;;;4.57;1.90;;;22.10;85.70;;;;;;4800834;29;20342;-84
2022/08/30 10:25:02;;;;;;;1.90;1.70;;;21.90;85.90;;;;;;4799097;29;20523;-82
2022/08/30 10:27:39;;;;;;;2.30;1.55;;;21.60;85.70;;;;;;4807514;29;20853;-82
2022/08/30 10:34:45;;;;;;;2.75;1.60;;;21.20;86.40;;;;;;4796821;29;20232;-80
2022/08/30 10:37:38;;;;;;;1.70;1.60;;;21.20;86.90;;;;;;4797267;29;20237;-80
2022/08/30 10:43:08;;;;;;;1.58;1.48;;;21.60;86.80;;;;;;4798735;29;20331;-78
2022/08/30 10:45:41;;;;;;;1.60;1.50;;;21.90;86.50;;;;;;4800029;29;20668;-81
2022/08/30 10:48:18;;;;;;;1.30;1.25;;;22.00;85.80;;;;;;4796718;29;20256;-80
2022/08/30 10:50:52;;;;;;;2.50;1.83;;;21.90;85.80;;;;;;4800092;29;20221;-80
2022/08/30 10:53:29;;;;;;;1.45;1.30;;;21.50;86.00;;;;;;4809118;29;20593;-80
2022/08/30 10:56:03;;;;;;;2.10;1.65;;;21.00;87.00;;;;;;4834419;29;20593;-82
2022/08/30 10:58:39;;;;;;;2.25;1.45;;;20.80;88.50;;;;;;4853546;29;20278;-82
2022/08/30 11:01:22;;;;;;;2.08;1.70;;;20.70;89.20;;;;;;4859936;29;20203;-80
2022/08/30 11:04:33;;;;;;;1.90;1.75;;;20.80;89.00;;;;;;4842073;29;20358;-80
2022/08/30 11:07:13;;;;;;;1.70;1.60;;;20.90;88.90;;;;;;4839454;29;20755;-81
2022/08/30 11:09:59;;;;;;;3.45;1.70;;;21.00;88.30;;;;;;4835051;29;20695;-78
2022/08/30 11:12:34;;;;;;;3.58;1.80;;;21.20;88.40;;;;;;4840874;29;21130;-81
2022/08/30 11:15:17;;;;;;;3.10;1.58;;;21.40;88.10;;;;;;4838624;29;20627;-78
2022/08/30 11:17:57;;;;;;;2.35;1.50;;;21.30;87.30;;;;;;4845590;29;20269;-82
2022/08/30 11:20:39;;;;;;;2.15;1.45;;;21.10;87.60;;;;;;4838985;29;20419;-80
2022/08/30 11:23:29;;;;;;;2.72;1.77;;;21.00;87.90;;;;;;4853404;29;20454;-82
2022/08/30 11:26:04;;;;;;;1.70;1.60;;;20.90;87.80;;;;;;4851795;29;20415;-81
2022/08/30 11:29:01;;;;;;;2.77;1.70;;;20.70;88.30;;;;;;4852002;29;20231;-80
2022/08/30 11:31:39;;;;;;;1.70;1.58;;;20.70;88.80;;;;;;4843498;29;20199;-82
2022/08/30 11:34:11;;;;;;;1.75;1.50;;;20.80;88.50;;;;;;4838493;29;21022;-80
2022/08/30 11:37:07;;;;;;;1.27;1.17;;;20.80;88.10;;;;;;4837545;29;20884;-82
2022/08/30 11:39:55;;;;;;;2.17;1.40;;;20.90;87.50;;;;;;4838100;29;21100;-82
2022/08/30 11:42:37;;;;;;;1.58;1.35;;;20.90;87.30;;;;;;4839790;29;20884;-80
2022/08/30 11:45:45;;;;;;;1.80;1.27;;;21.00;87.00;;;;;;4837037;29;20564;-78
2022/08/30 11:48:54;;;;;;;1.85;1.40;;;21.10;86.40;;;;;;4835855;29;20596;-81
2022/08/30 11:52:01;;;;;;;1.20;1.20;;;21.30;86.40;;;;;;4838462;29;20529;-80
2022/08/30 11:55:00;;;;;;;2.58;1.27;;;21.60;86.20;;;;;;4816183;29;20215;-81
2022/08/30 11:57:38;;;;;;;3.30;1.20;;;21.90;85.70;;;;;;4812426;29;21177;-80
2022/08/30 12:00:11;;;;;;;1.30;1.15;;;22.10;85.40;;;;;;4814592;29;20342;-80
2022/08/30 12:02:48;;;;;;;2.13;1.30;;;22.20;85.20;;;;;;4810744;29;20428;-81
2022/08/30 12:05:52;;;;;;;1.38;1.00;;;22.40;85.20;;;;;;4814117;29;20450;-82
2022/08/30 12:08:43;;;;;;;1.15;1.05;;;22.50;84.50;;;;;;4810593;29;20347;-82
2022/08/30 12:12:03;;;;;;;1.27;1.00;;;22.70;84.60;;;;;;4819120;29;20790;-81
2022/08/30 12:14:53;;;;;;;1.00;0.90;;;22.90;84.20;;;;;;4814613;29;21690;-83
2022/08/30 12:20:21;;;;;;;2.00;1.50;;;23.10;83.10;;;;;;4837310;29;21384;-84
2022/08/30 12:22:51;;;;;;;1.75;0.80;;;23.10;83.00;;;;;;4826177;29;20685;-81
2022/08/30 12:25:28;;;;;;;1.38;1.13;;;23.20;82.70;;;;;;4825148;29;20461;-79
2022/08/30 12:28:15;;;;;;;1.42;1.25;;;22.90;82.60;;;;;;4832129;29;20254;-81
2022/08/30 12:30:44;;;;;;;1.40;1.30;;;22.70;82.50;;;;;;4841703;29;20523;-80
2022/08/30 12:33:26;;;;;;;1.77;0.93;;;22.40;82.90;;;;;;4852539;29;20911;-81
2022/08/30 12:35:58;;;;;;;1.30;1.13;;;22.30;83.20;;;;;;4861227;29;20495;-79
2022/08/30 12:38:29;;;;;;;2.25;1.15;;;22.30;83.40;;;;;;4854285;29;20255;-80
2022/08/30 12:41:03;;;;;;;2.55;1.40;;;22.40;83.50;;;;;;4854931;29;20390;-80
2022/08/30 12:43:36;;;;;;;2.40;1.23;;;22.50;83.60;;;;;;4857822;29;20238;-83
2022/08/30 12:46:12;;;;;;;4.25;1.42;;;22.70;83.30;;;;;;4864332;29;20214;-83
2022/08/30 12:48:43;;;;;;;1.13;1.02;;;22.80;83.30;;;;;;4857332;29;20345;-86
2022/08/30 12:51:35;;;;;;;1.63;1.17;;;22.90;83.10;;;;;;4851969;29;20214;-84
2022/08/30 12:54:17;;;;;;;1.50;1.40;;;23.00;82.80;;;;;;4865510;29;20413;-85
2022/08/30 12:57:00;;;;;;;1.33;1.15;;;23.00;83.10;;;;;;4869184;29;20207;-83
2022/08/30 12:59:53;;;;;;;1.30;1.08;;;23.00;82.70;;;;;;4877080;29;20238;-85
2022/08/30 13:02:44;;;;;;;1.52;1.00;;;23.00;82.50;;;;;;4884538;29;20270;-84
2022/08/30 13:05:35;;;;;;;3.50;1.10;;;22.80;82.70;;;;;;4874581;29;20289;-86
2022/08/30 13:08:19;;;;;;;2.05;1.00;;;22.60;82.70;;;;;;4878018;29;20253;-84
2022/08/30 13:10:54;;;;;;;2.00;0.90;;;22.60;82.40;;;;;;4875913;29;20619;-85
2022/08/30 13:13:36;;;;;;;1.02;0.88;;;22.50;82.80;;;;;;4882474;29;20204;-85
2022/08/30 13:16:20;;;;;;;1.23;0.95;;;22.50;82.70;;;;;;4879985;29;20382;-87
2022/08/30 13:18:52;;;;;;;2.80;1.20;;;22.30;82.70;;;;;;4881336;29;20203;-85
2022/08/30 13:21:27;;;;;;;1.25;1.15;;;22.10;83.00;;;;;;4881267;29;20207;-83
2022/08/30 13:23:59;;;;;;;1.30;1.20;;;22.00;83.30;;;;;;4890852;29;20215;-83
2022/08/30 13:26:32;;;;;;;2.28;1.50;;;22.00;83.60;;;;;;4872656;29;20575;-85
2022/08/30 13:29:05;;;;;;;3.17;1.40;;;21.90;83.70;;;;;;4876930;29;20620;-85